Time;durP1;ratioP1;P1;durP2;ratioP2;P2;SDS_P1;SDS_P2;PMS_P1;PMS_P2;Temp;Humidity;BMP_temperature;BMP_pressure;BME280_temperature;BME280_humidity;BME280_pressure;Samples;Min_cycle;Max_cycle;Signal;HPM_P1;HPM_P2
2023/02/19 00:01:13;;;;;;;2.10;0.80;;;10.20;99.90;;;;;;5055266;28;20471;-71
2023/02/19 00:04:07;;;;;;;0.80;0.70;;;10.20;99.90;;;;;;5039874;28;20539;-71
2023/02/19 00:06:49;;;;;;;1.40;1.30;;;10.20;99.90;;;;;;5040273;28;20491;-71
2023/02/19 00:10:12;;;;;;;1.27;1.20;;;10.20;99.90;;;;;;5059792;28;20445;-71
2023/02/19 00:16:07;;;;;;;1.20;1.10;;;10.20;99.90;;;;;;5042819;28;21274;-71
2023/02/19 00:18:59;;;;;;;1.20;1.10;;;10.20;99.90;;;;;;5043781;28;20451;-71
2023/02/19 00:21:46;;;;;;;0.77;0.77;;;10.20;99.90;;;;;;5035495;28;20470;-71
2023/02/19 00:24:31;;;;;;;1.77;1.40;;;10.20;99.90;;;;;;5027220;28;20429;-72
2023/02/19 00:27:28;;;;;;;1.30;1.07;;;10.20;99.90;;;;;;5044335;28;20473;-71
2023/02/19 00:30:21;;;;;;;1.30;0.93;;;10.20;99.90;;;;;;5043599;28;20531;-71
2023/02/19 00:33:29;;;;;;;1.10;1.00;;;10.20;99.90;;;;;;5044099;28;20983;-71
2023/02/19 00:36:29;;;;;;;2.47;1.10;;;10.20;99.90;;;;;;5025034;28;20504;-71
2023/02/19 00:39:33;;;;;;;1.53;0.90;;;10.20;99.90;;;;;;5056753;28;20439;-72
2023/02/19 00:42:30;;;;;;;1.53;1.43;;;10.20;99.90;;;;;;5031834;28;20585;-71
2023/02/19 00:45:49;;;;;;;1.33;1.07;;;10.20;99.90;;;;;;5042454;28;20460;-72
2023/02/19 00:48:45;;;;;;;3.00;1.07;;;10.20;99.90;;;;;;5042005;28;20486;-71
2023/02/19 00:52:00;;;;;;;1.00;0.87;;;10.20;99.90;;;;;;5047178;28;20517;-71
2023/02/19 01:01:18;;;;;;;1.43;1.33;;;10.20;99.90;;;;;;5036303;28;20476;-71
2023/02/19 01:04:22;;;;;;;1.13;0.93;;;10.20;99.90;;;;;;5044374;28;20532;-71
2023/02/19 01:10:20;;;;;;;1.30;1.20;;;10.20;99.90;;;;;;5061209;28;20536;-71
2023/02/19 01:13:35;;;;;;;1.37;1.17;;;10.20;99.90;;;;;;5063623;28;20476;-72
2023/02/19 01:16:53;;;;;;;1.00;0.90;;;10.20;99.90;;;;;;5023044;28;20546;-71
2023/02/19 01:20:06;;;;;;;1.47;1.37;;;10.20;99.90;;;;;;5040810;28;20491;-71
2023/02/19 01:23:06;;;;;;;1.17;1.07;;;10.20;99.90;;;;;;5043505;28;20479;-71
2023/02/19 01:26:08;;;;;;;;;;;;;;;;;;;;;
2023/02/19 01:28:55;;;;;;;1.23;1.10;;;10.20;99.90;;;;;;5040858;28;20490;-71
2023/02/19 01:31:40;;;;;;;1.40;1.30;;;10.20;99.90;;;;;;5035613;28;20468;-71
2023/02/19 01:35:00;;;;;;;1.30;0.83;;;10.20;99.90;;;;;;5035949;28;20818;-71
2023/02/19 01:37:52;;;;;;;0.90;0.90;;;10.20;99.90;;;;;;5036648;28;20573;-71
2023/02/19 01:40:56;;;;;;;1.03;0.97;;;10.20;99.90;;;;;;5036043;28;20549;-71
2023/02/19 01:44:06;;;;;;;1.40;1.30;;;10.20;99.90;;;;;;5011741;28;20449;-71
2023/02/19 01:47:05;;;;;;;1.57;1.20;;;10.20;99.90;;;;;;5027673;28;20481;-71
2023/02/19 01:49:57;;;;;;;2.07;1.40;;;10.20;99.90;;;;;;5029008;28;20477;-71
2023/02/19 01:52:58;;;;;;;1.33;1.13;;;10.20;99.90;;;;;;5010608;28;20539;-71
2023/02/19 01:55:43;;;;;;;1.53;1.30;;;10.20;99.90;;;;;;5021189;28;21056;-71
2023/02/19 01:58:34;;;;;;;1.20;1.10;;;10.20;99.90;;;;;;5013270;28;20906;-71
2023/02/19 02:01:10;;;;;;;1.50;1.20;;;10.20;99.90;;;;;;5021651;28;20472;-71
2023/02/19 02:04:12;;;;;;;1.40;1.00;;;10.20;99.90;;;;;;5034680;28;21028;-71
2023/02/19 02:06:58;;;;;;;1.33;1.23;;;10.20;99.90;;;;;;5035644;28;21106;-71
2023/02/19 02:13:00;;;;;;;1.30;1.20;;;10.20;99.90;;;;;;5043758;28;20464;-71
2023/02/19 02:15:59;;;;;;;1.03;0.93;;;10.20;99.90;;;;;;5059935;28;20897;-71
2023/02/19 02:19:18;;;;;;;1.50;1.17;;;10.20;99.90;;;;;;5059103;28;20453;-72
2023/02/19 02:22:12;;;;;;;1.07;1.00;;;10.20;99.90;;;;;;5039952;28;20550;-71
2023/02/19 02:32:20;;;;;;;1.00;0.87;;;10.20;99.90;;;;;;5051205;28;20468;-71
2023/02/19 02:35:10;;;;;;;1.63;1.47;;;10.20;99.90;;;;;;5046128;28;20813;-71
2023/02/19 02:38:03;;;;;;;1.20;1.10;;;10.20;99.90;;;;;;5053939;28;20817;-71
2023/02/19 02:40:44;;;;;;;1.70;1.40;;;10.20;99.90;;;;;;5033278;28;20450;-71
2023/02/19 02:43:40;;;;;;;1.20;1.00;;;10.20;99.90;;;;;;5033360;28;20489;-71
2023/02/19 02:46:24;;;;;;;1.53;1.20;;;10.20;99.90;;;;;;5029680;28;20579;-71
2023/02/19 02:49:17;;;;;;;2.20;1.47;;;10.20;99.90;;;;;;5058840;28;20460;-71
2023/02/19 02:55:01;;;;;;;1.60;1.50;;;10.20;99.90;;;;;;5037739;28;20480;-71
2023/02/19 02:55:13;;;;;;;1.20;1.10;;;10.20;99.90;;;;;;5037417;28;20484;-71
2023/02/19 03:04:16;;;;;;;1.43;1.33;;;10.20;99.90;;;;;;5039165;28;20959;-71
2023/02/19 03:07:06;;;;;;;1.20;1.10;;;10.20;99.90;;;;;;5037306;28;20483;-71
2023/02/19 03:10:00;;;;;;;1.90;1.37;;;10.20;99.90;;;;;;5042951;28;20836;-71
2023/02/19 03:19:23;;;;;;;1.23;1.10;;;10.20;99.90;;;;;;5044187;28;20439;-71
2023/02/19 03:22:08;;;;;;;3.03;1.53;;;10.20;99.90;;;;;;5028549;28;20476;-71
2023/02/19 03:31:26;;;;;;;2.33;1.57;;;10.10;99.90;;;;;;5024976;28;20464;-71
2023/02/19 03:34:51;;;;;;;1.03;0.93;;;10.20;99.90;;;;;;5042924;28;20452;-71
2023/02/19 03:37:31;;;;;;;1.97;1.40;;;10.20;99.90;;;;;;5046173;28;20455;-71
2023/02/19 03:40:41;;;;;;;3.80;1.77;;;10.10;99.90;;;;;;5037529;28;20992;-70
2023/02/19 03:50:27;;;;;;;2.13;1.50;;;10.10;99.90;;;;;;5040025;28;20465;-71
2023/02/19 03:53:24;;;;;;;1.80;1.70;;;10.20;99.90;;;;;;5041938;28;20476;-71
2023/02/19 03:56:32;;;;;;;2.30;2.10;;;10.20;99.90;;;;;;5025435;28;20691;-71
2023/02/19 03:59:25;;;;;;;2.43;1.93;;;10.20;99.90;;;;;;5046122;28;20482;-71
2023/02/19 04:02:20;;;;;;;2.53;1.67;;;10.20;99.90;;;;;;5025398;28;20857;-71
2023/02/19 04:05:29;;;;;;;2.20;1.93;;;10.10;99.90;;;;;;5057551;28;20926;-71
2023/02/19 04:14:43;;;;;;;1.90;1.70;;;10.10;99.90;;;;;;5032812;28;20447;-71
2023/02/19 04:21:29;;;;;;;;;;;;;;;;;;;;;
2023/02/19 04:24:30;;;;;;;4.13;1.77;;;10.10;99.90;;;;;;5045844;28;20886;-71
2023/02/19 04:27:11;;;;;;;2.80;2.30;;;10.10;99.90;;;;;;5032976;28;20717;-71
2023/02/19 04:30:02;;;;;;;3.67;1.70;;;10.20;99.90;;;;;;5058998;28;20461;-71
2023/02/19 04:32:52;;;;;;;2.00;1.73;;;10.10;99.90;;;;;;5051019;28;20467;-71
2023/02/19 04:38:33;;;;;;;2.60;2.37;;;10.10;99.90;;;;;;5026079;28;20522;-71
2023/02/19 04:41:30;;;;;;;1.97;1.80;;;10.10;99.90;;;;;;5041455;28;20469;-71
2023/02/19 04:47:27;;;;;;;3.30;2.03;;;10.10;99.90;;;;;;5033500;28;20769;-71
2023/02/19 04:50:10;;;;;;;2.20;1.80;;;10.10;99.90;;;;;;5045465;28;20544;-71
2023/02/19 04:53:08;;;;;;;2.90;2.60;;;10.10;99.90;;;;;;5048054;28;20552;-71
2023/02/19 04:56:03;;;;;;;2.53;2.33;;;10.10;99.90;;;;;;5025542;28;20484;-71
2023/02/19 04:59:05;;;;;;;2.70;1.60;;;10.10;99.90;;;;;;5024527;28;20433;-71
2023/02/19 05:02:18;;;;;;;2.20;1.80;;;10.10;99.90;;;;;;5028170;28;20511;-71
2023/02/19 05:05:06;;;;;;;3.70;2.90;;;10.10;99.90;;;;;;5055802;28;20442;-71
2023/02/19 05:07:55;;;;;;;2.10;1.90;;;10.10;99.90;;;;;;5034898;28;20467;-71
2023/02/19 05:10:47;;;;;;;4.40;3.20;;;10.10;99.90;;;;;;5050700;28;20484;-71
2023/02/19 05:13:51;;;;;;;3.20;2.90;;;10.10;99.90;;;;;;5039862;28;20451;-71
2023/02/19 05:16:36;;;;;;;3.40;2.03;;;10.10;99.90;;;;;;5017186;28;20502;-71
2023/02/19 05:19:39;;;;;;;3.10;2.73;;;10.10;99.90;;;;;;5019395;28;20519;-71
2023/02/19 05:22:25;;;;;;;2.13;1.93;;;10.10;99.90;;;;;;5047439;28;20984;-71
2023/02/19 05:28:32;;;;;;;3.10;1.97;;;10.10;99.90;;;;;;5050369;28;20535;-71
2023/02/19 05:31:47;;;;;;;4.03;2.63;;;10.10;99.90;;;;;;5049806;28;20459;-71
2023/02/19 05:34:47;;;;;;;3.90;2.50;;;10.10;99.90;;;;;;5040109;28;20449;-71
2023/02/19 05:37:28;;;;;;;2.40;2.10;;;10.10;99.90;;;;;;5023705;28;20691;-71
2023/02/19 05:40:33;;;;;;;3.37;2.43;;;10.10;99.90;;;;;;5050246;28;20420;-71
2023/02/19 05:50:13;;;;;;;3.37;2.33;;;10.10;99.90;;;;;;5054300;28;20470;-71
2023/02/19 05:52:55;;;;;;;2.03;1.83;;;10.10;99.90;;;;;;5067038;28;20487;-71
2023/02/19 05:55:52;;;;;;;3.03;2.10;;;10.10;99.90;;;;;;5043241;28;20530;-71
2023/02/19 05:58:32;;;;;;;3.10;2.37;;;10.10;99.90;;;;;;5045000;28;20448;-71
2023/02/19 06:04:38;;;;;;;2.70;2.50;;;10.10;99.90;;;;;;5040191;28;20455;-71
2023/02/19 06:07:50;;;;;;;2.13;1.93;;;10.10;99.90;;;;;;5038811;28;20492;-71
2023/02/19 06:10:40;;;;;;;4.27;3.00;;;10.10;99.90;;;;;;5032316;28;20638;-72
2023/02/19 06:13:25;;;;;;;5.30;3.20;;;10.10;99.90;;;;;;5048560;28;20450;-71
2023/02/19 06:16:25;;;;;;;2.50;2.23;;;10.10;99.90;;;;;;5061593;28;20479;-71
2023/02/19 06:19:16;;;;;;;3.10;2.33;;;10.10;99.90;;;;;;5039195;28;20462;-71
2023/02/19 06:25:04;;;;;;;3.10;2.70;;;10.00;99.90;;;;;;5037614;28;20760;-71
2023/02/19 06:27:54;;;;;;;2.47;2.17;;;10.10;99.90;;;;;;5057872;28;20464;-71
2023/02/19 06:30:34;;;;;;;3.47;2.67;;;10.10;99.90;;;;;;5062091;28;20549;-71
2023/02/19 06:33:22;;;;;;;3.13;2.50;;;10.10;99.90;;;;;;5065725;28;20441;-71
2023/02/19 06:36:19;;;;;;;3.90;2.47;;;10.10;99.90;;;;;;5046129;28;20498;-71
2023/02/19 06:39:05;;;;;;;4.53;2.27;;;10.10;99.90;;;;;;5061356;28;20816;-71
2023/02/19 06:41:50;;;;;;;3.40;2.67;;;10.10;99.90;;;;;;5062494;28;20471;-71
2023/02/19 06:44:41;;;;;;;4.63;2.80;;;10.10;99.90;;;;;;5064764;28;20536;-71
2023/02/19 06:47:26;;;;;;;2.53;2.20;;;10.10;99.90;;;;;;5002993;28;20462;-71
2023/02/19 06:50:07;;;;;;;4.00;2.03;;;10.10;99.90;;;;;;4998273;28;21069;-71
2023/02/19 06:52:36;;;;;;;5.50;2.13;;;10.10;99.90;;;;;;5048012;28;20494;-71
2023/02/19 06:55:06;;;;;;;2.60;2.40;;;10.10;99.90;;;;;;5048936;28;20496;-71
2023/02/19 06:57:36;;;;;;;3.60;2.23;;;10.10;99.90;;;;;;5056926;28;21038;-71
2023/02/19 07:00:07;;;;;;;4.13;2.70;;;10.10;99.90;;;;;;5064182;28;20545;-71
2023/02/19 07:02:35;;;;;;;5.80;3.40;;;10.10;99.90;;;;;;5034550;28;20481;-71
2023/02/19 07:05:05;;;;;;;2.50;2.30;;;10.10;99.90;;;;;;5038884;28;20478;-71
2023/02/19 07:07:34;;;;;;;3.23;2.93;;;10.10;99.90;;;;;;5042289;28;20469;-71
2023/02/19 07:10:03;;;;;;;5.10;2.83;;;10.10;99.90;;;;;;5044867;28;20436;-71
2023/02/19 07:12:32;;;;;;;3.00;2.80;;;10.10;99.90;;;;;;5044828;28;20496;-71
2023/02/19 07:15:04;;;;;;;3.80;3.13;;;10.00;99.90;;;;;;5056923;28;20861;-71
2023/02/19 07:17:34;;;;;;;4.73;2.97;;;10.10;99.90;;;;;;5061369;28;21002;-71
2023/02/19 07:20:03;;;;;;;3.40;2.50;;;10.10;99.90;;;;;;5051537;28;20460;-71
2023/02/19 07:22:32;;;;;;;2.77;2.50;;;10.00;99.90;;;;;;5065038;28;20562;-71
2023/02/19 07:25:01;;;;;;;4.03;2.23;;;10.10;99.90;;;;;;5055363;28;20941;-71
2023/02/19 07:27:30;;;;;;;6.53;2.90;;;10.00;99.90;;;;;;5045464;28;20529;-71
2023/02/19 07:29:59;;;;;;;3.03;2.30;;;10.10;99.90;;;;;;5064143;28;20535;-71
2023/02/19 07:32:29;;;;;;;2.43;2.23;;;10.10;99.90;;;;;;5044840;28;20478;-71
2023/02/19 07:34:59;;;;;;;2.90;2.60;;;10.00;99.90;;;;;;5042473;28;20856;-71
2023/02/19 07:37:27;;;;;;;2.80;2.30;;;10.10;99.90;;;;;;5045535;28;20484;-71
2023/02/19 07:39:56;;;;;;;3.87;2.47;;;10.00;99.90;;;;;;5045844;28;20436;-71
2023/02/19 07:42:25;;;;;;;5.63;2.57;;;10.00;99.90;;;;;;5043480;28;20464;-71
2023/02/19 07:44:54;;;;;;;5.50;3.53;;;10.00;99.90;;;;;;5046909;28;20444;-71
2023/02/19 07:47:23;;;;;;;3.20;2.90;;;10.00;99.90;;;;;;5046160;28;20478;-71
2023/02/19 07:49:53;;;;;;;2.83;2.13;;;10.00;99.90;;;;;;5046991;28;20846;-71
2023/02/19 07:52:22;;;;;;;8.00;2.80;;;10.00;99.90;;;;;;5046754;28;20868;-71
2023/02/19 07:54:51;;;;;;;4.77;2.63;;;10.00;99.90;;;;;;5044559;28;20436;-71
2023/02/19 07:57:20;;;;;;;4.23;2.40;;;10.00;99.90;;;;;;5045464;28;20848;-71
2023/02/19 07:59:48;;;;;;;2.73;2.50;;;10.00;99.90;;;;;;5060524;28;20844;-71
2023/02/19 08:05:07;;;;;;;3.73;2.50;;;10.00;99.90;;;;;;5041248;28;20514;-71
2023/02/19 08:07:36;;;;;;;6.73;2.97;;;10.00;99.90;;;;;;5045411;28;20470;-71
2023/02/19 08:15:42;;;;;;;3.17;2.87;;;10.00;99.90;;;;;;5044216;28;20476;-71
2023/02/19 08:18:12;;;;;;;2.73;2.53;;;10.00;99.90;;;;;;5064209;28;20695;-71
2023/02/19 08:20:43;;;;;;;3.63;3.10;;;10.00;99.90;;;;;;5058985;28;20571;-71
2023/02/19 08:23:12;;;;;;;2.50;2.30;;;10.00;99.90;;;;;;5044698;28;20448;-71
2023/02/19 08:25:41;;;;;;;4.30;2.80;;;10.00;99.90;;;;;;5043760;28;20625;-71
2023/02/19 08:28:11;;;;;;;2.90;2.50;;;10.00;99.90;;;;;;5038223;28;20518;-71
2023/02/19 08:30:43;;;;;;;6.03;3.10;;;10.00;99.90;;;;;;5041650;28;20473;-71
2023/02/19 08:33:14;;;;;;;2.67;2.40;;;10.00;99.90;;;;;;5044913;28;20517;-71
2023/02/19 08:35:45;;;;;;;3.17;2.50;;;10.00;99.90;;;;;;5038194;28;20844;-71
2023/02/19 08:38:16;;;;;;;3.30;2.70;;;10.00;99.90;;;;;;5038614;28;20447;-71
2023/02/19 08:40:45;;;;;;;3.43;2.83;;;10.00;99.90;;;;;;5063652;28;20505;-71
2023/02/19 08:43:15;;;;;;;4.47;3.27;;;10.00;99.90;;;;;;5040183;28;20504;-71
2023/02/19 08:45:46;;;;;;;5.27;2.87;;;10.00;99.90;;;;;;5047084;28;20548;-71
2023/02/19 08:48:15;;;;;;;3.70;3.00;;;10.00;99.90;;;;;;5044580;28;20447;-71
2023/02/19 08:50:45;;;;;;;4.23;3.83;;;10.00;99.90;;;;;;5040650;28;20475;-71
2023/02/19 08:53:13;;;;;;;3.70;3.03;;;10.00;99.90;;;;;;5037276;28;20446;-71
2023/02/19 08:55:42;;;;;;;6.53;3.40;;;10.00;99.90;;;;;;5045363;28;20476;-71
2023/02/19 08:58:11;;;;;;;4.23;2.93;;;10.00;99.90;;;;;;5041115;28;20969;-71
2023/02/19 09:00:40;;;;;;;4.00;2.90;;;10.00;99.90;;;;;;5057571;28;20521;-71
2023/02/19 09:03:09;;;;;;;3.70;2.67;;;10.00;99.90;;;;;;5049572;28;20452;-71
2023/02/19 09:05:38;;;;;;;3.60;3.30;;;10.00;99.90;;;;;;5042621;28;20609;-71
2023/02/19 09:08:09;;;;;;;3.53;3.10;;;10.00;99.90;;;;;;5058020;28;20483;-71
2023/02/19 09:10:38;;;;;;;4.50;2.70;;;10.00;99.90;;;;;;5050074;28;20463;-71
2023/02/19 09:13:06;;;;;;;3.87;3.30;;;10.00;99.90;;;;;;5043499;28;20610;-71
2023/02/19 09:15:37;;;;;;;4.03;2.50;;;10.00;99.90;;;;;;5050021;28;20468;-71
2023/02/19 09:18:05;;;;;;;4.37;3.10;;;10.00;99.90;;;;;;5048987;28;20445;-71
2023/02/19 09:20:34;;;;;;;3.97;3.27;;;10.00;99.90;;;;;;5061082;28;20740;-71
2023/02/19 09:23:02;;;;;;;4.73;3.30;;;10.00;99.90;;;;;;5048057;28;20542;-71
2023/02/19 09:25:32;;;;;;;5.13;2.60;;;10.00;99.90;;;;;;5048533;28;20582;-71
2023/02/19 09:28:01;;;;;;;4.40;2.80;;;10.00;99.90;;;;;;5047769;28;20968;-71
2023/02/19 09:30:34;;;;;;;3.40;3.00;;;10.00;99.90;;;;;;5062058;28;20472;-71
2023/02/19 09:33:04;;;;;;;6.30;3.70;;;10.00;99.90;;;;;;5049272;28;20503;-71
2023/02/19 09:35:33;;;;;;;6.63;3.27;;;10.00;99.90;;;;;;5041961;28;21186;-71
2023/02/19 09:38:02;;;;;;;2.77;2.03;;;10.00;99.90;;;;;;5050428;28;20534;-71
2023/02/19 09:40:32;;;;;;;3.83;3.00;;;10.00;99.90;;;;;;5048748;28;20492;-71
2023/02/19 09:43:01;;;;;;;4.50;3.07;;;10.00;99.90;;;;;;5064632;28;20451;-71
2023/02/19 09:45:30;;;;;;;4.93;3.20;;;10.00;99.90;;;;;;5067370;28;20832;-71
2023/02/19 09:47:59;;;;;;;5.77;3.77;;;10.00;99.90;;;;;;5049967;28;20945;-71
2023/02/19 09:50:33;;;;;;;4.40;3.00;;;10.00;99.90;;;;;;5048647;28;20432;-71
2023/02/19 09:53:05;;;;;;;3.90;2.90;;;10.00;99.90;;;;;;5049847;28;20443;-71
2023/02/19 09:55:39;;;;;;;7.63;2.97;;;10.00;99.90;;;;;;5048151;28;20471;-70
2023/02/19 09:58:21;;;;;;;3.93;3.33;;;10.00;99.90;;;;;;5043905;28;20456;-71
2023/02/19 10:00:51;;;;;;;5.17;3.03;;;10.00;99.90;;;;;;5048528;28;20984;-71
2023/02/19 10:03:24;;;;;;;4.87;2.73;;;10.00;99.90;;;;;;5066804;28;20519;-71
2023/02/19 10:05:55;;;;;;;3.40;3.07;;;10.00;99.90;;;;;;5052386;28;20539;-71
2023/02/19 10:08:24;;;;;;;3.80;2.63;;;10.00;99.90;;;;;;5048719;28;20446;-71
2023/02/19 10:10:54;;;;;;;5.23;3.10;;;10.00;99.90;;;;;;5049199;28;20538;-71
2023/02/19 10:13:25;;;;;;;5.20;2.97;;;10.00;99.90;;;;;;5057281;28;20504;-71
2023/02/19 10:15:57;;;;;;;4.20;2.87;;;10.00;99.90;;;;;;5064064;28;20832;-71
2023/02/19 10:18:28;;;;;;;2.43;2.23;;;10.00;99.90;;;;;;5029900;28;20437;-71
2023/02/19 10:20:58;;;;;;;2.70;2.43;;;10.00;99.90;;;;;;5042071;28;20445;-71
2023/02/19 10:23:27;;;;;;;3.30;3.00;;;10.00;99.90;;;;;;5046061;28;20437;-71
2023/02/19 10:25:59;;;;;;;3.80;2.70;;;10.00;99.90;;;;;;5047783;28;20460;-71
2023/02/19 10:28:29;;;;;;;4.13;3.43;;;10.00;99.90;;;;;;5047567;28;20891;-71
2023/02/19 10:31:00;;;;;;;3.00;2.70;;;10.00;99.90;;;;;;5066614;28;20501;-71
2023/02/19 10:33:30;;;;;;;4.50;3.27;;;10.00;99.90;;;;;;5048019;28;20467;-71
2023/02/19 10:36:02;;;;;;;6.60;2.90;;;10.00;99.90;;;;;;5060460;28;20476;-71
2023/02/19 10:38:34;;;;;;;6.00;3.13;;;10.00;99.90;;;;;;5048335;28;20814;-71
2023/02/19 10:41:08;;;;;;;4.03;2.80;;;10.00;99.90;;;;;;5049428;28;20442;-71
2023/02/19 10:43:41;;;;;;;3.30;2.80;;;10.00;99.90;;;;;;5044376;28;20489;-71
2023/02/19 10:46:22;;;;;;;4.07;2.83;;;10.00;99.90;;;;;;5047571;28;20479;-71
2023/02/19 10:48:53;;;;;;;5.80;2.83;;;10.00;99.90;;;;;;5065320;28;20963;-71
2023/02/19 10:51:30;;;;;;;4.13;2.90;;;10.00;99.90;;;;;;5044854;28;21009;-71
2023/02/19 10:54:08;;;;;;;3.00;2.47;;;10.00;99.90;;;;;;5048772;28;20479;-71
2023/02/19 10:56:40;;;;;;;4.10;2.90;;;10.00;99.90;;;;;;5046920;28;20826;-71
2023/02/19 10:59:20;;;;;;;4.00;2.77;;;10.10;99.90;;;;;;5046479;28;20454;-71
2023/02/19 11:02:00;;;;;;;5.10;2.93;;;10.00;99.90;;;;;;5046482;28;20484;-71
2023/02/19 11:04:32;;;;;;;2.83;2.57;;;10.10;99.90;;;;;;5064807;28;20439;-71
2023/02/19 11:07:09;;;;;;;4.67;3.20;;;10.00;99.90;;;;;;5048072;28;20560;-71
2023/02/19 11:09:39;;;;;;;6.23;2.77;;;10.00;99.90;;;;;;5047183;28;20445;-71
2023/02/19 11:12:12;;;;;;;3.73;3.30;;;10.00;99.90;;;;;;5043218;28;20481;-71
2023/02/19 11:14:44;;;;;;;3.67;2.87;;;10.10;99.90;;;;;;5046439;28;20474;-71
2023/02/19 11:17:23;;;;;;;3.93;2.40;;;10.00;99.90;;;;;;5061451;28;20476;-71
2023/02/19 11:19:54;;;;;;;3.13;2.57;;;10.10;99.90;;;;;;5038204;28;20979;-71
2023/02/19 11:22:31;;;;;;;4.13;3.10;;;10.10;99.90;;;;;;5061678;28;20527;-71
2023/02/19 11:25:05;;;;;;;3.03;2.77;;;10.00;99.90;;;;;;5056695;28;20506;-71
2023/02/19 11:27:36;;;;;;;2.80;2.50;;;10.00;99.90;;;;;;5040105;28;20841;-71
2023/02/19 11:30:32;;;;;;;4.63;2.83;;;10.00;99.90;;;;;;5040593;28;20433;-71
2023/02/19 11:33:20;;;;;;;2.80;2.60;;;10.10;99.90;;;;;;5063146;28;20836;-71
2023/02/19 11:35:50;;;;;;;2.93;2.70;;;10.00;99.90;;;;;;5040975;28;20488;-71
2023/02/19 11:38:20;;;;;;;5.07;3.10;;;10.10;99.90;;;;;;5066822;28;20595;-71
2023/02/19 11:40:55;;;;;;;2.93;2.40;;;10.10;99.90;;;;;;5040146;28;21016;-71
2023/02/19 11:43:46;;;;;;;2.97;2.63;;;10.10;99.90;;;;;;5047083;28;20963;-71
2023/02/19 11:46:21;;;;;;;5.50;3.20;;;10.10;99.90;;;;;;5065623;28;20451;-71
2023/02/19 11:48:57;;;;;;;3.10;2.50;;;10.10;99.90;;;;;;5046311;28;20437;-71
2023/02/19 11:51:36;;;;;;;3.70;3.20;;;10.10;99.90;;;;;;5038463;28;20530;-71
2023/02/19 11:54:18;;;;;;;3.30;2.97;;;10.00;99.90;;;;;;5047876;28;20460;-71
2023/02/19 11:56:52;;;;;;;3.80;3.37;;;10.00;99.90;;;;;;5039229;28;20477;-71
2023/02/19 11:59:30;;;;;;;3.97;3.03;;;10.10;99.90;;;;;;5038493;28;20493;-71
2023/02/19 12:02:34;;;;;;;3.20;2.60;;;10.00;99.90;;;;;;5047052;28;21039;-71
2023/02/19 12:05:45;;;;;;;3.83;3.00;;;10.00;99.90;;;;;;5033834;28;20447;-71
2023/02/19 12:09:02;;;;;;;2.57;2.30;;;10.00;99.90;;;;;;5059995;28;20960;-71
2023/02/19 12:12:01;;;;;;;3.27;2.97;;;10.00;99.90;;;;;;5058016;28;20844;-71
2023/02/19 12:14:56;;;;;;;4.97;2.70;;;10.00;99.90;;;;;;5046301;28;20519;-71
2023/02/19 12:17:46;;;;;;;3.60;3.07;;;10.00;99.90;;;;;;5055731;28;20479;-71
2023/02/19 12:20:27;;;;;;;3.53;2.73;;;10.00;99.90;;;;;;5047249;28;20444;-73
2023/02/19 12:23:28;;;;;;;3.57;3.00;;;10.00;99.90;;;;;;5041310;28;20491;-73
2023/02/19 12:26:05;;;;;;;3.33;2.63;;;10.00;99.90;;;;;;5052502;28;20890;-73
2023/02/19 12:29:01;;;;;;;3.10;2.50;;;10.10;99.90;;;;;;5045753;28;21297;-73
2023/02/19 12:31:52;;;;;;;3.57;2.23;;;10.00;99.90;;;;;;5051059;28;20469;-73
2023/02/19 12:34:41;;;;;;;4.70;2.47;;;10.00;99.90;;;;;;5049214;28;20685;-73
2023/02/19 12:37:23;;;;;;;3.97;2.60;;;10.10;99.90;;;;;;5064723;28;20552;-73
2023/02/19 12:40:10;;;;;;;4.77;2.80;;;10.10;99.90;;;;;;5047071;28;20483;-73
2023/02/19 12:42:52;;;;;;;3.20;2.60;;;10.00;99.90;;;;;;5047631;28;21063;-73
2023/02/19 12:45:27;;;;;;;4.67;3.20;;;10.00;99.90;;;;;;5048384;28;21061;-73
2023/02/19 12:48:06;;;;;;;4.40;2.80;;;10.10;99.90;;;;;;5043463;28;20462;-73
2023/02/19 12:50:40;;;;;;;2.60;2.40;;;10.10;99.90;;;;;;5048516;28;20929;-74
2023/02/19 12:53:27;;;;;;;4.37;4.03;;;10.10;99.90;;;;;;5048807;28;20727;-73
2023/02/19 12:55:57;;;;;;;2.70;2.50;;;10.10;99.90;;;;;;5062156;28;20527;-73
2023/02/19 12:58:32;;;;;;;3.73;2.80;;;10.10;99.90;;;;;;5067410;28;21016;-73
2023/02/19 13:01:00;;;;;;;3.10;2.80;;;10.00;99.90;;;;;;5062533;28;20657;-73
2023/02/19 13:03:35;;;;;;;3.07;2.77;;;10.00;99.90;;;;;;5047612;28;20845;-73
2023/02/19 13:06:10;;;;;;;3.90;2.40;;;10.00;99.90;;;;;;5047400;28;20913;-73
2023/02/19 13:08:45;;;;;;;3.23;2.93;;;10.10;99.90;;;;;;5067096;28;20442;-73
2023/02/19 13:11:38;;;;;;;3.00;2.80;;;10.10;99.90;;;;;;5046895;28;21019;-74
2023/02/19 13:14:19;;;;;;;3.47;3.17;;;10.10;99.90;;;;;;5047590;28;20467;-73
2023/02/19 13:16:52;;;;;;;4.43;3.27;;;10.00;99.90;;;;;;5059810;28;20576;-73
2023/02/19 13:19:23;;;;;;;2.97;2.67;;;10.10;99.90;;;;;;5048818;28;20558;-73
2023/02/19 13:24:46;;;;;;;3.90;2.60;;;10.10;99.90;;;;;;5038358;28;20516;-73
2023/02/19 13:27:52;;;;;;;3.17;2.97;;;10.10;99.90;;;;;;5043431;28;20507;-73
2023/02/19 13:30:47;;;;;;;3.40;3.10;;;10.10;99.90;;;;;;5043731;28;20453;-73
2023/02/19 13:33:39;;;;;;;3.37;3.07;;;10.10;99.90;;;;;;5047116;28;20472;-72
2023/02/19 13:36:16;;;;;;;3.07;2.77;;;10.10;99.90;;;;;;5059181;28;20901;-73
2023/02/19 13:38:47;;;;;;;2.50;2.30;;;10.10;99.90;;;;;;5043947;28;20777;-73
2023/02/19 13:41:26;;;;;;;4.17;3.67;;;10.10;99.90;;;;;;5042023;28;20498;-73
2023/02/19 13:43:58;;;;;;;5.13;3.30;;;10.10;99.90;;;;;;5042005;28;21220;-73
2023/02/19 13:46:35;;;;;;;3.07;2.80;;;10.10;99.90;;;;;;5063663;28;20528;-73
2023/02/19 13:49:43;;;;;;;3.10;2.90;;;10.00;99.90;;;;;;5046300;28;20444;-73
2023/02/19 13:52:42;;;;;;;3.40;2.77;;;10.00;99.90;;;;;;5059505;28;20551;-73
2023/02/19 13:55:48;;;;;;;3.83;3.53;;;10.00;99.90;;;;;;5046196;28;20473;-71
2023/02/19 13:58:56;;;;;;;3.50;3.20;;;10.00;99.90;;;;;;5048051;28;20464;-71
2023/02/19 14:02:11;;;;;;;4.10;2.90;;;10.00;99.90;;;;;;5031935;28;20473;-71
2023/02/19 14:04:51;;;;;;;3.77;3.03;;;10.00;99.90;;;;;;5039327;28;20488;-71
2023/02/19 14:07:45;;;;;;;3.23;3.00;;;10.00;99.90;;;;;;5065451;28;20485;-71
2023/02/19 14:10:57;;;;;;;3.20;2.60;;;10.00;99.90;;;;;;5061727;28;20534;-71
2023/02/19 14:13:58;;;;;;;3.63;3.10;;;10.10;99.90;;;;;;5034839;28;20475;-71
2023/02/19 14:16:49;;;;;;;6.50;2.70;;;10.10;99.90;;;;;;5045108;28;20447;-71
2023/02/19 14:20:00;;;;;;;2.67;2.47;;;10.00;99.90;;;;;;5045457;28;20505;-71
2023/02/19 14:23:05;;;;;;;3.00;2.70;;;10.10;99.90;;;;;;5047758;28;21118;-71
2023/02/19 14:25:43;;;;;;;3.53;3.23;;;10.00;99.90;;;;;;5050412;28;20459;-71
2023/02/19 14:28:19;;;;;;;3.33;2.67;;;10.00;99.90;;;;;;5031464;28;20452;-71
2023/02/19 14:30:51;;;;;;;3.73;2.67;;;10.10;99.90;;;;;;5038067;28;20535;-71
2023/02/19 14:33:22;;;;;;;3.63;3.27;;;10.00;99.90;;;;;;5045973;28;20455;-71
2023/02/19 14:35:55;;;;;;;5.07;3.37;;;10.10;99.90;;;;;;5048309;28;20564;-71
2023/02/19 14:38:28;;;;;;;3.00;2.73;;;10.10;99.90;;;;;;5048131;28;20977;-71
2023/02/19 14:40:59;;;;;;;3.20;2.90;;;10.00;99.90;;;;;;5035630;28;20543;-71
2023/02/19 14:43:29;;;;;;;3.67;3.37;;;10.00;99.90;;;;;;5055968;28;20437;-71
2023/02/19 14:46:01;;;;;;;3.00;2.80;;;10.00;99.90;;;;;;5049619;28;20455;-72
2023/02/19 14:48:34;;;;;;;3.07;2.77;;;10.00;99.90;;;;;;5050868;28;20823;-71
2023/02/19 14:51:07;;;;;;;3.20;2.90;;;10.10;99.90;;;;;;5035007;28;20749;-71
2023/02/19 14:53:39;;;;;;;4.23;3.70;;;10.10;99.90;;;;;;5047847;28;20821;-71
2023/02/19 14:56:20;;;;;;;3.73;2.90;;;10.10;99.90;;;;;;5066617;28;20815;-72
2023/02/19 14:59:07;;;;;;;6.73;3.30;;;10.10;99.90;;;;;;5041174;28;20706;-71
2023/02/19 15:01:36;;;;;;;3.47;3.17;;;10.00;99.90;;;;;;5052229;28;20461;-71
2023/02/19 15:04:06;;;;;;;3.50;3.00;;;10.10;99.90;;;;;;5051530;28;20481;-71
2023/02/19 15:06:36;;;;;;;3.90;2.63;;;10.00;99.90;;;;;;5045787;28;20480;-71
2023/02/19 15:09:07;;;;;;;6.23;3.20;;;10.00;99.90;;;;;;5046611;28;20459;-71
2023/02/19 15:11:38;;;;;;;3.27;2.97;;;10.00;99.90;;;;;;5047636;28;20542;-71
2023/02/19 15:14:08;;;;;;;3.60;2.90;;;10.00;99.90;;;;;;5064740;28;20454;-71
2023/02/19 15:16:37;;;;;;;3.57;3.27;;;10.10;99.90;;;;;;5048112;28;20533;-71
2023/02/19 15:19:12;;;;;;;4.60;3.43;;;10.10;99.90;;;;;;5063925;28;20470;-71
2023/02/19 15:21:49;;;;;;;3.90;3.60;;;10.00;99.90;;;;;;5065163;28;20482;-71
2023/02/19 15:24:19;;;;;;;3.57;3.03;;;10.00;99.90;;;;;;5046453;28;20451;-71
2023/02/19 15:26:52;;;;;;;3.37;3.07;;;10.00;99.90;;;;;;5055552;28;20464;-71
2023/02/19 15:29:23;;;;;;;3.93;3.27;;;10.00;99.90;;;;;;5043838;28;20444;-71
2023/02/19 15:31:54;;;;;;;6.10;2.53;;;10.00;99.90;;;;;;5047761;28;20530;-71
2023/02/19 15:34:28;;;;;;;3.67;3.27;;;10.00;99.90;;;;;;5046164;28;20447;-71
2023/02/19 15:37:00;;;;;;;3.57;3.20;;;10.00;99.90;;;;;;5046490;28;20467;-71
2023/02/19 15:39:34;;;;;;;3.13;2.83;;;10.00;99.90;;;;;;5061566;28;20436;-71
2023/02/19 15:42:07;;;;;;;4.40;3.10;;;10.00;99.90;;;;;;5039636;28;20744;-71